sensor_id;sensor_type;location;lat;lon;timestamp;P1;durP1;ratioP1;P2;durP2;ratioP2
80732;SDS011;70130;44.534;18.678;2023-10-08T00:02:44;34.72;;;16.30;;
80732;SDS011;70130;44.534;18.678;2023-10-08T00:05:10;33.28;;;15.68;;
80732;SDS011;70130;44.534;18.678;2023-10-08T00:07:38;25.85;;;14.35;;
80732;SDS011;70130;44.534;18.678;2023-10-08T00:10:10;28.63;;;14.43;;
80732;SDS011;70130;44.534;18.678;2023-10-08T00:12:38;28.13;;;14.15;;
80732;SDS011;70130;44.534;18.678;2023-10-08T00:18:23;26.15;;;13.43;;
80732;SDS011;70130;44.534;18.678;2023-10-08T00:20:52;25.40;;;12.23;;
80732;SDS011;70130;44.534;18.678;2023-10-08T00:23:26;23.30;;;13.30;;
80732;SDS011;70130;44.534;18.678;2023-10-08T00:28:45;30.02;;;14.45;;
80732;SDS011;70130;44.534;18.678;2023-10-08T00:31:15;25.02;;;13.30;;
80732;SDS011;70130;44.534;18.678;2023-10-08T00:33:43;22.83;;;13.48;;
80732;SDS011;70130;44.534;18.678;2023-10-08T00:36:10;27.38;;;13.63;;
80732;SDS011;70130;44.534;18.678;2023-10-08T00:38:44;30.67;;;15.23;;
80732;SDS011;70130;44.534;18.678;2023-10-08T00:41:19;31.77;;;15.65;;
80732;SDS011;70130;44.534;18.678;2023-10-08T00:43:48;29.77;;;16.73;;
80732;SDS011;70130;44.534;18.678;2023-10-08T00:46:17;27.70;;;15.07;;
80732;SDS011;70130;44.534;18.678;2023-10-08T00:48:53;27.77;;;14.45;;
80732;SDS011;70130;44.534;18.678;2023-10-08T00:51:21;25.70;;;13.52;;
80732;SDS011;70130;44.534;18.678;2023-10-08T00:53:56;27.65;;;12.73;;
80732;SDS011;70130;44.534;18.678;2023-10-08T00:56:46;25.95;;;12.00;;
80732;SDS011;70130;44.534;18.678;2023-10-08T00:59:15;25.20;;;13.90;;
80732;SDS011;70130;44.534;18.678;2023-10-08T01:01:44;24.13;;;13.05;;
80732;SDS011;70130;44.534;18.678;2023-10-08T01:04:16;21.98;;;13.40;;
80732;SDS011;70130;44.534;18.678;2023-10-08T01:06:42;25.63;;;13.15;;
80732;SDS011;70130;44.534;18.678;2023-10-08T01:09:11;26.23;;;13.35;;
80732;SDS011;70130;44.534;18.678;2023-10-08T01:14:54;23.88;;;13.57;;
80732;SDS011;70130;44.534;18.678;2023-10-08T01:17:23;22.80;;;12.90;;
80732;SDS011;70130;44.534;18.678;2023-10-08T01:19:54;24.25;;;13.07;;
80732;SDS011;70130;44.534;18.678;2023-10-08T01:22:22;26.70;;;11.63;;
80732;SDS011;70130;44.534;18.678;2023-10-08T01:24:48;23.65;;;12.68;;
80732;SDS011;70130;44.534;18.678;2023-10-08T01:27:18;26.25;;;12.63;;
80732;SDS011;70130;44.534;18.678;2023-10-08T01:29:52;24.65;;;12.02;;
80732;SDS011;70130;44.534;18.678;2023-10-08T01:32:21;22.25;;;12.90;;
80732;SDS011;70130;44.534;18.678;2023-10-08T01:34:50;22.25;;;12.27;;
80732;SDS011;70130;44.534;18.678;2023-10-08T01:37:16;21.65;;;11.57;;
80732;SDS011;70130;44.534;18.678;2023-10-08T01:39:44;24.48;;;13.60;;
80732;SDS011;70130;44.534;18.678;2023-10-08T01:42:11;21.67;;;11.95;;
80732;SDS011;70130;44.534;18.678;2023-10-08T01:44:48;24.67;;;12.85;;
80732;SDS011;70130;44.534;18.678;2023-10-08T01:47:16;23.38;;;12.43;;
80732;SDS011;70130;44.534;18.678;2023-10-08T01:49:46;22.08;;;13.80;;
80732;SDS011;70130;44.534;18.678;2023-10-08T01:52:14;25.55;;;13.50;;
80732;SDS011;70130;44.534;18.678;2023-10-08T01:54:51;23.77;;;13.63;;
80732;SDS011;70130;44.534;18.678;2023-10-08T01:57:20;22.20;;;12.80;;
80732;SDS011;70130;44.534;18.678;2023-10-08T01:59:45;22.98;;;13.02;;
80732;SDS011;70130;44.534;18.678;2023-10-08T02:02:11;28.83;;;13.00;;
80732;SDS011;70130;44.534;18.678;2023-10-08T02:04:39;24.02;;;12.10;;
80732;SDS011;70130;44.534;18.678;2023-10-08T02:07:05;22.70;;;12.30;;
80732;SDS011;70130;44.534;18.678;2023-10-08T02:09:33;25.50;;;12.80;;
80732;SDS011;70130;44.534;18.678;2023-10-08T02:12:02;20.10;;;11.45;;
80732;SDS011;70130;44.534;18.678;2023-10-08T02:14:32;23.05;;;11.95;;
80732;SDS011;70130;44.534;18.678;2023-10-08T02:17:01;19.25;;;12.05;;
80732;SDS011;70130;44.534;18.678;2023-10-08T02:19:49;20.38;;;12.48;;
80732;SDS011;70130;44.534;18.678;2023-10-08T02:22:18;22.65;;;12.43;;
80732;SDS011;70130;44.534;18.678;2023-10-08T02:24:44;21.95;;;12.90;;
80732;SDS011;70130;44.534;18.678;2023-10-08T02:27:13;25.85;;;12.57;;
80732;SDS011;70130;44.534;18.678;2023-10-08T02:29:40;22.55;;;12.32;;
80732;SDS011;70130;44.534;18.678;2023-10-08T02:32:07;22.15;;;11.88;;
80732;SDS011;70130;44.534;18.678;2023-10-08T02:34:36;21.35;;;11.90;;
80732;SDS011;70130;44.534;18.678;2023-10-08T02:37:04;25.33;;;11.95;;
80732;SDS011;70130;44.534;18.678;2023-10-08T02:39:30;22.05;;;12.70;;
80732;SDS011;70130;44.534;18.678;2023-10-08T02:41:57;23.70;;;12.45;;
80732;SDS011;70130;44.534;18.678;2023-10-08T02:44:28;24.33;;;13.85;;
80732;SDS011;70130;44.534;18.678;2023-10-08T02:46:56;26.48;;;13.77;;
80732;SDS011;70130;44.534;18.678;2023-10-08T02:49:21;19.48;;;11.63;;
80732;SDS011;70130;44.534;18.678;2023-10-08T02:51:50;21.08;;;11.90;;
80732;SDS011;70130;44.534;18.678;2023-10-08T02:54:18;20.60;;;11.23;;
80732;SDS011;70130;44.534;18.678;2023-10-08T02:56:49;22.52;;;12.32;;
80732;SDS011;70130;44.534;18.678;2023-10-08T02:59:20;27.85;;;12.50;;
80732;SDS011;70130;44.534;18.678;2023-10-08T03:01:50;23.23;;;11.48;;
80732;SDS011;70130;44.534;18.678;2023-10-08T03:04:24;22.95;;;12.25;;
80732;SDS011;70130;44.534;18.678;2023-10-08T03:06:53;20.98;;;11.32;;
80732;SDS011;70130;44.534;18.678;2023-10-08T03:09:19;22.58;;;11.90;;
80732;SDS011;70130;44.534;18.678;2023-10-08T03:11:49;26.80;;;12.43;;
80732;SDS011;70130;44.534;18.678;2023-10-08T03:14:16;19.50;;;11.40;;
80732;SDS011;70130;44.534;18.678;2023-10-08T03:16:52;22.30;;;11.80;;
80732;SDS011;70130;44.534;18.678;2023-10-08T03:19:19;22.13;;;11.40;;
80732;SDS011;70130;44.534;18.678;2023-10-08T03:21:47;22.75;;;12.15;;
80732;SDS011;70130;44.534;18.678;2023-10-08T03:24:16;19.65;;;11.23;;
80732;SDS011;70130;44.534;18.678;2023-10-08T03:26:58;22.33;;;11.63;;
80732;SDS011;70130;44.534;18.678;2023-10-08T03:29:46;22.13;;;12.07;;
80732;SDS011;70130;44.534;18.678;2023-10-08T03:32:14;21.30;;;12.45;;
80732;SDS011;70130;44.534;18.678;2023-10-08T03:34:46;25.27;;;13.35;;
80732;SDS011;70130;44.534;18.678;2023-10-08T03:37:18;25.10;;;12.88;;
80732;SDS011;70130;44.534;18.678;2023-10-08T03:39:47;22.83;;;12.52;;
80732;SDS011;70130;44.534;18.678;2023-10-08T03:42:22;20.27;;;11.77;;
80732;SDS011;70130;44.534;18.678;2023-10-08T03:44:51;19.27;;;11.45;;
80732;SDS011;70130;44.534;18.678;2023-10-08T03:47:21;26.30;;;12.75;;
80732;SDS011;70130;44.534;18.678;2023-10-08T03:49:48;21.60;;;11.57;;
80732;SDS011;70130;44.534;18.678;2023-10-08T03:52:19;23.80;;;11.98;;
80732;SDS011;70130;44.534;18.678;2023-10-08T03:54:50;26.80;;;12.55;;
80732;SDS011;70130;44.534;18.678;2023-10-08T03:57:36;19.38;;;11.23;;
80732;SDS011;70130;44.534;18.678;2023-10-08T04:00:08;21.90;;;11.93;;
80732;SDS011;70130;44.534;18.678;2023-10-08T04:02:42;19.65;;;11.55;;
80732;SDS011;70130;44.534;18.678;2023-10-08T04:05:19;23.55;;;12.20;;
80732;SDS011;70130;44.534;18.678;2023-10-08T04:07:48;20.70;;;11.20;;
80732;SDS011;70130;44.534;18.678;2023-10-08T04:10:34;19.52;;;11.52;;
80732;SDS011;70130;44.534;18.678;2023-10-08T04:13:06;19.80;;;10.75;;
80732;SDS011;70130;44.534;18.678;2023-10-08T04:15:38;20.15;;;10.48;;
80732;SDS011;70130;44.534;18.678;2023-10-08T04:18:10;23.23;;;11.18;;
80732;SDS011;70130;44.534;18.678;2023-10-08T04:20:38;23.67;;;11.63;;
80732;SDS011;70130;44.534;18.678;2023-10-08T04:23:07;23.42;;;10.77;;
80732;SDS011;70130;44.534;18.678;2023-10-08T04:25:44;29.55;;;11.32;;
80732;SDS011;70130;44.534;18.678;2023-10-08T04:28:21;20.80;;;10.20;;
80732;SDS011;70130;44.534;18.678;2023-10-08T04:31:01;21.48;;;10.50;;
80732;SDS011;70130;44.534;18.678;2023-10-08T04:33:41;21.90;;;10.95;;
80732;SDS011;70130;44.534;18.678;2023-10-08T04:36:07;18.25;;;10.80;;
80732;SDS011;70130;44.534;18.678;2023-10-08T04:38:38;19.88;;;11.65;;
80732;SDS011;70130;44.534;18.678;2023-10-08T04:41:07;22.23;;;11.13;;
80732;SDS011;70130;44.534;18.678;2023-10-08T04:43:39;18.25;;;10.05;;
80732;SDS011;70130;44.534;18.678;2023-10-08T04:46:08;25.40;;;12.80;;
80732;SDS011;70130;44.534;18.678;2023-10-08T04:48:45;21.52;;;11.80;;
80732;SDS011;70130;44.534;18.678;2023-10-08T04:51:14;19.73;;;11.52;;
80732;SDS011;70130;44.534;18.678;2023-10-08T04:53:40;22.77;;;11.57;;
80732;SDS011;70130;44.534;18.678;2023-10-08T04:56:09;21.05;;;11.73;;
80732;SDS011;70130;44.534;18.678;2023-10-08T04:58:45;21.27;;;11.00;;
80732;SDS011;70130;44.534;18.678;2023-10-08T05:01:16;21.08;;;11.63;;
80732;SDS011;70130;44.534;18.678;2023-10-08T05:06:33;19.45;;;10.57;;
80732;SDS011;70130;44.534;18.678;2023-10-08T05:09:03;20.00;;;11.20;;
80732;SDS011;70130;44.534;18.678;2023-10-08T05:11:45;23.95;;;14.07;;
80732;SDS011;70130;44.534;18.678;2023-10-08T05:14:18;24.33;;;13.82;;
80732;SDS011;70130;44.534;18.678;2023-10-08T05:17:04;24.73;;;13.65;;
80732;SDS011;70130;44.534;18.678;2023-10-08T05:19:43;21.73;;;12.23;;
80732;SDS011;70130;44.534;18.678;2023-10-08T05:22:27;26.33;;;13.55;;
80732;SDS011;70130;44.534;18.678;2023-10-08T05:24:53;21.45;;;12.35;;
80732;SDS011;70130;44.534;18.678;2023-10-08T05:27:38;22.17;;;12.82;;
80732;SDS011;70130;44.534;18.678;2023-10-08T05:33:07;26.30;;;12.90;;
80732;SDS011;70130;44.534;18.678;2023-10-08T05:35:50;23.20;;;13.35;;
80732;SDS011;70130;44.534;18.678;2023-10-08T05:38:20;25.35;;;14.40;;
80732;SDS011;70130;44.534;18.678;2023-10-08T05:40:48;27.20;;;15.65;;
80732;SDS011;70130;44.534;18.678;2023-10-08T05:43:24;24.88;;;14.40;;
80732;SDS011;70130;44.534;18.678;2023-10-08T05:46:11;25.52;;;14.88;;
80732;SDS011;70130;44.534;18.678;2023-10-08T05:48:48;25.93;;;14.57;;
80732;SDS011;70130;44.534;18.678;2023-10-08T05:51:34;23.38;;;13.52;;
80732;SDS011;70130;44.534;18.678;2023-10-08T05:54:19;23.30;;;14.23;;
80732;SDS011;70130;44.534;18.678;2023-10-08T05:57:01;30.50;;;16.02;;
80732;SDS011;70130;44.534;18.678;2023-10-08T05:59:50;28.15;;;15.40;;
80732;SDS011;70130;44.534;18.678;2023-10-08T06:02:25;25.33;;;13.88;;
80732;SDS011;70130;44.534;18.678;2023-10-08T06:04:52;26.05;;;14.45;;
80732;SDS011;70130;44.534;18.678;2023-10-08T06:07:41;24.95;;;14.52;;
80732;SDS011;70130;44.534;18.678;2023-10-08T06:10:27;20.83;;;12.52;;
80732;SDS011;70130;44.534;18.678;2023-10-08T06:13:03;24.55;;;12.80;;
80732;SDS011;70130;44.534;18.678;2023-10-08T06:15:38;29.23;;;13.70;;
80732;SDS011;70130;44.534;18.678;2023-10-08T06:18:24;20.90;;;12.23;;
80732;SDS011;70130;44.534;18.678;2023-10-08T06:20:54;24.75;;;13.27;;
80732;SDS011;70130;44.534;18.678;2023-10-08T06:23:27;27.48;;;13.18;;
80732;SDS011;70130;44.534;18.678;2023-10-08T06:26:00;22.58;;;12.65;;
80732;SDS011;70130;44.534;18.678;2023-10-08T06:28:33;29.25;;;13.68;;
80732;SDS011;70130;44.534;18.678;2023-10-08T06:31:06;25.15;;;12.57;;
80732;SDS011;70130;44.534;18.678;2023-10-08T06:33:39;27.00;;;14.70;;
80732;SDS011;70130;44.534;18.678;2023-10-08T06:36:06;28.50;;;14.57;;
80732;SDS011;70130;44.534;18.678;2023-10-08T06:38:41;25.35;;;12.38;;
80732;SDS011;70130;44.534;18.678;2023-10-08T06:41:13;24.17;;;12.80;;
80732;SDS011;70130;44.534;18.678;2023-10-08T06:43:46;27.92;;;12.98;;
80732;SDS011;70130;44.534;18.678;2023-10-08T06:46:18;23.75;;;14.13;;
80732;SDS011;70130;44.534;18.678;2023-10-08T06:48:46;32.20;;;18.95;;
80732;SDS011;70130;44.534;18.678;2023-10-08T06:51:15;34.90;;;19.10;;
80732;SDS011;70130;44.534;18.678;2023-10-08T06:53:47;36.23;;;18.03;;
80732;SDS011;70130;44.534;18.678;2023-10-08T06:56:14;26.90;;;16.08;;
80732;SDS011;70130;44.534;18.678;2023-10-08T06:58:41;29.23;;;15.13;;
80732;SDS011;70130;44.534;18.678;2023-10-08T07:01:13;21.92;;;12.55;;
80732;SDS011;70130;44.534;18.678;2023-10-08T07:03:49;22.10;;;12.30;;
80732;SDS011;70130;44.534;18.678;2023-10-08T07:06:16;29.15;;;14.73;;
80732;SDS011;70130;44.534;18.678;2023-10-08T07:08:42;22.25;;;12.40;;
80732;SDS011;70130;44.534;18.678;2023-10-08T07:11:17;23.93;;;12.20;;
80732;SDS011;70130;44.534;18.678;2023-10-08T07:13:43;21.63;;;10.70;;
80732;SDS011;70130;44.534;18.678;2023-10-08T07:16:09;19.92;;;10.43;;
80732;SDS011;70130;44.534;18.678;2023-10-08T07:18:37;18.80;;;10.02;;
80732;SDS011;70130;44.534;18.678;2023-10-08T07:21:06;18.20;;;10.25;;
80732;SDS011;70130;44.534;18.678;2023-10-08T07:23:40;19.48;;;11.05;;
80732;SDS011;70130;44.534;18.678;2023-10-08T07:26:30;21.25;;;11.30;;
80732;SDS011;70130;44.534;18.678;2023-10-08T07:29:02;16.50;;;9.35;;
80732;SDS011;70130;44.534;18.678;2023-10-08T07:31:38;18.23;;;9.32;;
80732;SDS011;70130;44.534;18.678;2023-10-08T07:34:10;16.00;;;9.43;;
80732;SDS011;70130;44.534;18.678;2023-10-08T07:36:47;20.45;;;9.13;;
80732;SDS011;70130;44.534;18.678;2023-10-08T07:39:13;18.98;;;10.32;;
80732;SDS011;70130;44.534;18.678;2023-10-08T07:41:54;21.17;;;12.18;;
80732;SDS011;70130;44.534;18.678;2023-10-08T07:44:20;27.20;;;13.40;;
80732;SDS011;70130;44.534;18.678;2023-10-08T07:46:50;27.00;;;12.93;;
80732;SDS011;70130;44.534;18.678;2023-10-08T07:49:17;23.77;;;12.73;;
80732;SDS011;70130;44.534;18.678;2023-10-08T07:51:43;20.30;;;12.35;;
80732;SDS011;70130;44.534;18.678;2023-10-08T07:54:19;22.42;;;11.23;;
80732;SDS011;70130;44.534;18.678;2023-10-08T07:56:47;20.83;;;10.77;;
80732;SDS011;70130;44.534;18.678;2023-10-08T07:59:13;20.85;;;11.18;;
80732;SDS011;70130;44.534;18.678;2023-10-08T08:01:41;19.23;;;11.02;;
80732;SDS011;70130;44.534;18.678;2023-10-08T08:04:11;21.58;;;11.45;;
80732;SDS011;70130;44.534;18.678;2023-10-08T08:06:47;21.48;;;11.02;;
80732;SDS011;70130;44.534;18.678;2023-10-08T08:09:19;24.70;;;12.13;;
80732;SDS011;70130;44.534;18.678;2023-10-08T08:11:51;23.55;;;11.90;;
80732;SDS011;70130;44.534;18.678;2023-10-08T08:14:19;26.40;;;12.10;;
80732;SDS011;70130;44.534;18.678;2023-10-08T08:16:50;26.02;;;14.27;;
80732;SDS011;70130;44.534;18.678;2023-10-08T08:19:19;31.80;;;18.52;;
80732;SDS011;70130;44.534;18.678;2023-10-08T08:21:49;41.47;;;20.20;;
80732;SDS011;70130;44.534;18.678;2023-10-08T08:24:17;39.67;;;21.20;;
80732;SDS011;70130;44.534;18.678;2023-10-08T08:29:27;42.15;;;21.38;;
80732;SDS011;70130;44.534;18.678;2023-10-08T08:32:00;38.38;;;18.98;;
80732;SDS011;70130;44.534;18.678;2023-10-08T08:34:29;36.35;;;18.65;;
80732;SDS011;70130;44.534;18.678;2023-10-08T08:36:56;39.95;;;19.20;;
80732;SDS011;70130;44.534;18.678;2023-10-08T08:39:22;30.75;;;17.27;;
80732;SDS011;70130;44.534;18.678;2023-10-08T08:42:04;33.65;;;17.92;;
80732;SDS011;70130;44.534;18.678;2023-10-08T08:44:36;29.48;;;17.38;;
80732;SDS011;70130;44.534;18.678;2023-10-08T08:47:09;29.85;;;17.52;;
80732;SDS011;70130;44.534;18.678;2023-10-08T08:49:42;36.47;;;21.15;;
80732;SDS011;70130;44.534;18.678;2023-10-08T08:52:11;38.47;;;22.48;;
80732;SDS011;70130;44.534;18.678;2023-10-08T08:54:38;36.33;;;20.23;;
80732;SDS011;70130;44.534;18.678;2023-10-08T08:57:07;38.22;;;21.25;;
80732;SDS011;70130;44.534;18.678;2023-10-08T08:59:49;37.00;;;20.45;;
80732;SDS011;70130;44.534;18.678;2023-10-08T09:02:23;40.47;;;21.92;;
80732;SDS011;70130;44.534;18.678;2023-10-08T09:04:52;35.83;;;20.92;;
80732;SDS011;70130;44.534;18.678;2023-10-08T09:07:19;36.37;;;20.40;;
80732;SDS011;70130;44.534;18.678;2023-10-08T09:09:46;33.97;;;17.80;;
80732;SDS011;70130;44.534;18.678;2023-10-08T09:12:15;31.63;;;18.50;;
80732;SDS011;70130;44.534;18.678;2023-10-08T09:14:45;32.38;;;18.88;;
80732;SDS011;70130;44.534;18.678;2023-10-08T09:17:13;34.45;;;18.10;;
80732;SDS011;70130;44.534;18.678;2023-10-08T09:22:10;33.58;;;17.63;;
80732;SDS011;70130;44.534;18.678;2023-10-08T09:24:37;29.08;;;16.13;;
80732;SDS011;70130;44.534;18.678;2023-10-08T09:27:08;28.23;;;15.57;;
80732;SDS011;70130;44.534;18.678;2023-10-08T09:29:42;25.65;;;14.20;;
80732;SDS011;70130;44.534;18.678;2023-10-08T09:32:11;19.08;;;11.15;;
80732;SDS011;70130;44.534;18.678;2023-10-08T09:37:27;16.88;;;10.52;;
80732;SDS011;70130;44.534;18.678;2023-10-08T09:39:55;17.67;;;8.73;;
80732;SDS011;70130;44.534;18.678;2023-10-08T09:42:22;16.92;;;9.75;;
80732;SDS011;70130;44.534;18.678;2023-10-08T09:44:52;20.77;;;10.55;;
80732;SDS011;70130;44.534;18.678;2023-10-08T09:47:21;17.08;;;9.30;;
80732;SDS011;70130;44.534;18.678;2023-10-08T09:50:01;16.58;;;9.00;;
80732;SDS011;70130;44.534;18.678;2023-10-08T09:52:39;16.30;;;8.95;;
80732;SDS011;70130;44.534;18.678;2023-10-08T09:55:12;18.10;;;9.65;;
80732;SDS011;70130;44.534;18.678;2023-10-08T09:57:45;19.73;;;10.30;;
80732;SDS011;70130;44.534;18.678;2023-10-08T10:00:14;18.50;;;10.02;;
80732;SDS011;70130;44.534;18.678;2023-10-08T10:02:49;22.30;;;10.13;;
80732;SDS011;70130;44.534;18.678;2023-10-08T10:05:21;19.70;;;10.73;;
80732;SDS011;70130;44.534;18.678;2023-10-08T10:07:50;21.30;;;10.50;;
80732;SDS011;70130;44.534;18.678;2023-10-08T10:10:33;18.35;;;11.07;;
80732;SDS011;70130;44.534;18.678;2023-10-08T10:13:08;21.40;;;10.77;;
80732;SDS011;70130;44.534;18.678;2023-10-08T10:15:39;16.42;;;9.30;;
80732;SDS011;70130;44.534;18.678;2023-10-08T10:18:08;16.45;;;9.73;;
80732;SDS011;70130;44.534;18.678;2023-10-08T10:20:39;15.90;;;9.27;;
80732;SDS011;70130;44.534;18.678;2023-10-08T10:34:23;17.25;;;9.38;;
80732;SDS011;70130;44.534;18.678;2023-10-08T10:36:54;17.80;;;8.77;;
80732;SDS011;70130;44.534;18.678;2023-10-08T10:39:24;16.75;;;8.32;;
80732;SDS011;70130;44.534;18.678;2023-10-08T10:41:59;13.80;;;7.68;;
80732;SDS011;70130;44.534;18.678;2023-10-08T10:44:34;16.75;;;8.57;;
80732;SDS011;70130;44.534;18.678;2023-10-08T10:47:02;16.15;;;8.77;;
80732;SDS011;70130;44.534;18.678;2023-10-08T10:49:43;15.40;;;8.63;;
80732;SDS011;70130;44.534;18.678;2023-10-08T10:52:19;16.23;;;8.95;;
80732;SDS011;70130;44.534;18.678;2023-10-08T10:55:13;22.92;;;10.95;;
80732;SDS011;70130;44.534;18.678;2023-10-08T10:57:39;17.23;;;9.30;;
80732;SDS011;70130;44.534;18.678;2023-10-08T11:00:07;18.90;;;9.63;;
80732;SDS011;70130;44.534;18.678;2023-10-08T11:03:01;17.10;;;9.18;;
80732;SDS011;70130;44.534;18.678;2023-10-08T11:05:32;13.65;;;7.80;;
80732;SDS011;70130;44.534;18.678;2023-10-08T11:08:02;10.38;;;6.18;;
80732;SDS011;70130;44.534;18.678;2023-10-08T11:10:42;12.73;;;6.70;;
80732;SDS011;70130;44.534;18.678;2023-10-08T11:13:23;11.15;;;6.03;;
80732;SDS011;70130;44.534;18.678;2023-10-08T11:15:54;14.07;;;7.43;;
80732;SDS011;70130;44.534;18.678;2023-10-08T11:18:23;10.18;;;6.57;;
80732;SDS011;70130;44.534;18.678;2023-10-08T11:20:52;12.85;;;6.68;;
80732;SDS011;70130;44.534;18.678;2023-10-08T11:23:39;16.80;;;7.85;;
80732;SDS011;70130;44.534;18.678;2023-10-08T11:26:21;14.93;;;7.18;;
80732;SDS011;70130;44.534;18.678;2023-10-08T11:29:00;15.20;;;7.35;;
80732;SDS011;70130;44.534;18.678;2023-10-08T11:31:31;15.70;;;7.15;;
80732;SDS011;70130;44.534;18.678;2023-10-08T11:34:00;11.77;;;6.93;;
80732;SDS011;70130;44.534;18.678;2023-10-08T11:36:27;13.77;;;6.82;;
80732;SDS011;70130;44.534;18.678;2023-10-08T11:38:57;13.10;;;6.32;;
80732;SDS011;70130;44.534;18.678;2023-10-08T11:41:37;7.72;;;5.20;;
80732;SDS011;70130;44.534;18.678;2023-10-08T11:44:15;11.15;;;6.03;;
80732;SDS011;70130;44.534;18.678;2023-10-08T11:46:45;11.65;;;6.90;;
80732;SDS011;70130;44.534;18.678;2023-10-08T11:49:16;15.35;;;6.38;;
80732;SDS011;70130;44.534;18.678;2023-10-08T11:51:50;10.13;;;6.00;;
80732;SDS011;70130;44.534;18.678;2023-10-08T11:54:17;15.10;;;6.25;;
80732;SDS011;70130;44.534;18.678;2023-10-08T11:56:45;13.48;;;6.93;;
80732;SDS011;70130;44.534;18.678;2023-10-08T11:59:12;10.38;;;5.88;;
80732;SDS011;70130;44.534;18.678;2023-10-08T12:01:41;13.02;;;6.75;;
80732;SDS011;70130;44.534;18.678;2023-10-08T12:04:09;14.18;;;7.20;;
80732;SDS011;70130;44.534;18.678;2023-10-08T12:06:42;16.25;;;8.30;;
80732;SDS011;70130;44.534;18.678;2023-10-08T12:09:17;16.23;;;8.13;;
80732;SDS011;70130;44.534;18.678;2023-10-08T12:11:47;15.00;;;7.25;;
80732;SDS011;70130;44.534;18.678;2023-10-08T12:14:13;17.52;;;7.93;;
80732;SDS011;70130;44.534;18.678;2023-10-08T12:16:40;16.65;;;7.85;;
80732;SDS011;70130;44.534;18.678;2023-10-08T12:19:10;18.17;;;8.48;;
80732;SDS011;70130;44.534;18.678;2023-10-08T12:21:44;15.13;;;7.95;;
80732;SDS011;70130;44.534;18.678;2023-10-08T12:24:12;17.63;;;7.97;;
80732;SDS011;70130;44.534;18.678;2023-10-08T12:26:41;19.25;;;8.13;;
80732;SDS011;70130;44.534;18.678;2023-10-08T12:29:11;15.80;;;7.20;;
80732;SDS011;70130;44.534;18.678;2023-10-08T12:31:39;16.48;;;7.63;;
80732;SDS011;70130;44.534;18.678;2023-10-08T12:34:05;18.13;;;8.30;;
80732;SDS011;70130;44.534;18.678;2023-10-08T12:36:34;16.90;;;8.70;;
80732;SDS011;70130;44.534;18.678;2023-10-08T12:39:01;18.23;;;8.25;;
80732;SDS011;70130;44.534;18.678;2023-10-08T12:41:34;17.75;;;8.63;;
80732;SDS011;70130;44.534;18.678;2023-10-08T12:44:03;16.60;;;7.78;;
80732;SDS011;70130;44.534;18.678;2023-10-08T12:46:35;18.83;;;8.90;;
80732;SDS011;70130;44.534;18.678;2023-10-08T12:49:04;21.20;;;8.75;;
80732;SDS011;70130;44.534;18.678;2023-10-08T12:51:29;19.75;;;8.35;;
80732;SDS011;70130;44.534;18.678;2023-10-08T12:53:59;20.55;;;8.75;;
80732;SDS011;70130;44.534;18.678;2023-10-08T12:56:32;19.25;;;8.52;;
80732;SDS011;70130;44.534;18.678;2023-10-08T12:59:13;21.58;;;10.38;;
80732;SDS011;70130;44.534;18.678;2023-10-08T13:01:49;19.70;;;9.82;;
80732;SDS011;70130;44.534;18.678;2023-10-08T13:04:19;23.80;;;10.02;;
80732;SDS011;70130;44.534;18.678;2023-10-08T13:06:56;25.67;;;10.57;;
80732;SDS011;70130;44.534;18.678;2023-10-08T13:09:29;26.10;;;11.02;;
80732;SDS011;70130;44.534;18.678;2023-10-08T13:11:56;24.75;;;10.73;;
80732;SDS011;70130;44.534;18.678;2023-10-08T13:14:24;20.85;;;10.65;;
80732;SDS011;70130;44.534;18.678;2023-10-08T13:16:50;20.80;;;10.65;;
80732;SDS011;70130;44.534;18.678;2023-10-08T13:19:21;26.27;;;12.27;;
80732;SDS011;70130;44.534;18.678;2023-10-08T13:21:54;26.48;;;11.27;;
80732;SDS011;70130;44.534;18.678;2023-10-08T13:24:20;27.73;;;11.85;;
80732;SDS011;70130;44.534;18.678;2023-10-08T13:26:46;23.70;;;11.68;;
80732;SDS011;70130;44.534;18.678;2023-10-08T13:29:19;25.10;;;11.63;;
80732;SDS011;70130;44.534;18.678;2023-10-08T13:31:44;22.92;;;11.27;;
80732;SDS011;70130;44.534;18.678;2023-10-08T13:34:11;23.05;;;10.70;;
80732;SDS011;70130;44.534;18.678;2023-10-08T13:36:37;23.50;;;10.88;;
80732;SDS011;70130;44.534;18.678;2023-10-08T13:39:04;22.70;;;10.90;;
80732;SDS011;70130;44.534;18.678;2023-10-08T13:41:34;25.63;;;11.90;;
80732;SDS011;70130;44.534;18.678;2023-10-08T13:44:05;31.23;;;12.18;;
80732;SDS011;70130;44.534;18.678;2023-10-08T13:46:31;25.17;;;12.55;;
80732;SDS011;70130;44.534;18.678;2023-10-08T13:49:01;27.27;;;13.88;;
80732;SDS011;70130;44.534;18.678;2023-10-08T13:51:30;23.73;;;10.27;;
80732;SDS011;70130;44.534;18.678;2023-10-08T13:56:26;23.80;;;9.48;;
80732;SDS011;70130;44.534;18.678;2023-10-08T13:58:55;19.73;;;9.05;;
80732;SDS011;70130;44.534;18.678;2023-10-08T14:01:37;24.70;;;8.85;;
80732;SDS011;70130;44.534;18.678;2023-10-08T14:04:06;22.08;;;9.63;;
80732;SDS011;70130;44.534;18.678;2023-10-08T14:06:32;22.23;;;10.20;;
80732;SDS011;70130;44.534;18.678;2023-10-08T14:08:59;24.30;;;10.23;;
80732;SDS011;70130;44.534;18.678;2023-10-08T14:11:26;21.02;;;9.40;;
80732;SDS011;70130;44.534;18.678;2023-10-08T14:13:56;17.60;;;8.40;;
80732;SDS011;70130;44.534;18.678;2023-10-08T14:16:23;15.07;;;7.13;;
80732;SDS011;70130;44.534;18.678;2023-10-08T14:18:58;20.00;;;7.97;;
80732;SDS011;70130;44.534;18.678;2023-10-08T14:21:25;22.13;;;7.90;;
80732;SDS011;70130;44.534;18.678;2023-10-08T14:23:58;19.50;;;7.35;;
80732;SDS011;70130;44.534;18.678;2023-10-08T14:26:31;19.58;;;8.20;;
80732;SDS011;70130;44.534;18.678;2023-10-08T14:29:01;16.25;;;6.80;;
80732;SDS011;70130;44.534;18.678;2023-10-08T14:31:39;19.92;;;7.28;;
80732;SDS011;70130;44.534;18.678;2023-10-08T14:34:07;13.85;;;5.32;;
80732;SDS011;70130;44.534;18.678;2023-10-08T14:36:45;13.05;;;5.38;;
80732;SDS011;70130;44.534;18.678;2023-10-08T14:39:31;15.27;;;6.70;;
80732;SDS011;70130;44.534;18.678;2023-10-08T14:42:16;16.88;;;8.60;;
80732;SDS011;70130;44.534;18.678;2023-10-08T14:45:04;15.05;;;5.63;;
80732;SDS011;70130;44.534;18.678;2023-10-08T14:47:39;14.57;;;5.15;;
80732;SDS011;70130;44.534;18.678;2023-10-08T14:50:05;13.30;;;5.40;;
80732;SDS011;70130;44.534;18.678;2023-10-08T14:52:39;17.80;;;4.80;;
80732;SDS011;70130;44.534;18.678;2023-10-08T14:55:05;11.75;;;4.53;;
80732;SDS011;70130;44.534;18.678;2023-10-08T14:57:34;10.38;;;4.35;;
80732;SDS011;70130;44.534;18.678;2023-10-08T15:00:02;10.75;;;4.68;;
80732;SDS011;70130;44.534;18.678;2023-10-08T15:02:33;14.82;;;5.22;;
80732;SDS011;70130;44.534;18.678;2023-10-08T15:05:01;15.57;;;5.28;;
80732;SDS011;70130;44.534;18.678;2023-10-08T15:07:29;11.57;;;4.47;;
80732;SDS011;70130;44.534;18.678;2023-10-08T15:09:59;15.05;;;4.97;;
80732;SDS011;70130;44.534;18.678;2023-10-08T15:12:35;12.52;;;5.22;;
80732;SDS011;70130;44.534;18.678;2023-10-08T15:15:03;12.48;;;5.40;;
80732;SDS011;70130;44.534;18.678;2023-10-08T15:17:45;15.30;;;7.70;;